Terminal Aerodrome Forecast
Issued by NWS

Home | Current Version | Previous Version | Graphics & Text | Print | Product List | Glossary On
Versions: 1 2 3 4 5 6 7 8 9 10 11 12 13 14 15
000
FTUS43 KIWX 140539
TAFSBN
TAF
KSBN 140539Z 1406/1506 36013G21KT P6SM SCT025
      TEMPO 1406/1409 SCT015 BKN025
     FM140900 01010KT P6SM SCT035
     FM141400 03005KT P6SM SCT040 BKN100
     FM141900 24004KT P6SM BKN040=

USA.gov is the U.S. government's official web portal to all federal, state and local government web resources and services.